Time;durP1;ratioP1;P1;durP2;ratioP2;P2;SDS_P1;SDS_P2;PMS_P1;PMS_P2;Temp;Humidity;BMP_temperature;BMP_pressure;BME280_temperature;BME280_humidity;BME280_pressure;Samples;Min_cycle;Max_cycle;Signal;HPM_P1;HPM_P2
2022/01/29 00:00:45;;;;;;;38.83;23.40;;;;;;;3.45;62.73;102742.69;5013322;28;20072;-65
2022/01/29 00:03:13;;;;;;;40.70;25.13;;;;;;;3.46;62.51;102745.28;5013278;28;20045;-66
2022/01/29 00:05:40;;;;;;;37.67;22.63;;;;;;;3.43;62.45;102738.34;5013523;28;20049;-66
2022/01/29 00:08:07;;;;;;;37.50;22.75;;;;;;;3.41;62.44;102739.19;5013616;28;20080;-64
2022/01/29 00:10:34;;;;;;;37.38;22.83;;;;;;;3.27;62.58;102734.78;5013522;28;20096;-66
2022/01/29 00:13:01;;;;;;;35.15;22.13;;;;;;;3.29;62.34;102728.72;5013588;28;20402;-66
2022/01/29 00:15:27;;;;;;;35.55;22.67;;;;;;;3.28;62.28;102733.06;5013249;28;20046;-66
2022/01/29 00:17:54;;;;;;;39.35;23.10;;;;;;;3.24;62.16;102737.38;5014117;28;20049;-65
2022/01/29 00:20:21;;;;;;;37.75;22.65;;;;;;;3.23;62.23;102732.19;5013187;28;20049;-66
2022/01/29 00:22:47;;;;;;;37.47;22.27;;;;;;;3.24;62.12;102727.00;5013460;28;20465;-66
2022/01/29 00:25:14;;;;;;;37.42;21.85;;;;;;;3.24;61.91;102728.72;5013446;28;20121;-66
2022/01/29 00:27:41;;;;;;;35.95;21.90;;;;;;;3.23;61.96;102745.16;5013002;28;20064;-65
2022/01/29 00:30:10;;;;;;;37.08;21.70;;;;;;;3.15;62.34;102752.00;5013387;28;20054;-65
2022/01/29 00:32:37;;;;;;;38.97;22.67;;;;;;;3.21;61.83;102746.84;5012981;28;20046;-64
2022/01/29 00:35:05;;;;;;;34.60;21.92;;;;;;;3.22;61.85;102746.84;5013289;28;20046;-65
2022/01/29 00:37:32;;;;;;;40.60;22.92;;;;;;;3.25;61.67;102733.91;5013189;28;20049;-65
2022/01/29 00:39:59;;;;;;;36.35;22.38;;;;;;;3.27;61.70;102733.91;5013290;28;20041;-65
2022/01/29 00:42:25;;;;;;;35.92;21.75;;;;;;;3.30;61.68;102725.28;5013275;28;20404;-65
2022/01/29 00:44:52;;;;;;;34.63;21.95;;;;;;;3.21;61.85;102733.88;5012787;28;20053;-66
2022/01/29 00:47:19;;;;;;;35.10;20.98;;;;;;;2.98;62.34;102728.53;5013380;28;20442;-66
2022/01/29 00:49:46;;;;;;;34.60;21.85;;;;;;;3.02;61.90;102726.00;5013696;28;20132;-66
2022/01/29 00:52:13;;;;;;;37.13;21.30;;;;;;;3.07;61.76;102729.50;5013250;28;20050;-66
2022/01/29 00:54:41;;;;;;;36.63;21.50;;;;;;;3.08;61.57;102741.56;5013177;28;20072;-65
2022/01/29 00:57:07;;;;;;;36.00;21.38;;;;;;;3.05;61.67;102745.91;5016683;28;20116;-66
2022/01/29 00:59:34;;;;;;;32.95;21.27;;;;;;;3.02;61.69;102748.44;5016458;28;20402;-66
2022/01/29 01:02:03;;;;;;;34.13;20.98;;;;;;;2.96;61.95;102749.28;5016523;28;20045;-65
2022/01/29 01:04:30;;;;;;;37.60;21.83;;;;;;;2.86;62.06;102757.84;5016528;28;20125;-65
2022/01/29 01:06:56;;;;;;;32.42;20.15;;;;;;;2.85;61.66;102766.47;5016541;28;20069;-65
2022/01/29 01:09:23;;;;;;;32.42;20.10;;;;;;;2.84;61.58;102772.53;5016376;28;20050;-66
2022/01/29 01:11:50;;;;;;;30.98;20.02;;;;;;;2.81;61.34;102773.38;5016058;28;20049;-65
2022/01/29 01:14:16;;;;;;;36.55;20.92;;;;;;;2.60;62.19;102781.81;5015866;28;20098;-66
2022/01/29 01:16:43;;;;;;;31.95;20.15;;;;;;;2.64;61.83;102793.97;5016199;28;20046;-66
2022/01/29 01:19:10;;;;;;;35.67;20.98;;;;;;;2.66;61.44;102792.22;5016007;28;20132;-66
2022/01/29 01:21:36;;;;;;;34.50;21.08;;;;;;;2.64;61.31;102787.88;5016212;28;20056;-66
2022/01/29 01:24:04;;;;;;;37.53;21.95;;;;;;;2.67;61.15;102782.75;5016450;28;20046;-66
2022/01/29 01:26:30;;;;;;;33.08;20.27;;;;;;;2.69;61.13;102791.38;5015827;28;20064;-66
2022/01/29 01:28:57;;;;;;;32.30;19.70;;;;;;;2.63;61.32;102794.81;5015859;28;20101;-65
2022/01/29 01:31:24;;;;;;;32.60;20.90;;;;;;;2.64;61.18;102793.06;5016032;28;20045;-65
2022/01/29 01:33:51;;;;;;;35.95;20.48;;;;;;;2.58;61.03;102788.72;5016004;28;20050;-65
2022/01/29 01:36:22;;;;;;;37.63;20.88;;;;;;;2.64;61.06;102782.69;5015529;28;20060;-65
2022/01/29 01:38:54;;;;;;;46.58;21.98;;;;;;;2.66;61.12;102781.00;5015892;28;20046;-66
2022/01/29 01:41:24;;;;;;;36.88;21.10;;;;;;;2.59;61.19;102773.16;5015857;28;20053;-65
2022/01/29 01:43:59;;;;;;;35.53;22.05;;;;;;;2.50;61.57;102770.50;5015999;28;20050;-65
2022/01/29 01:46:28;;;;;;;38.17;21.40;;;;;;;2.55;61.16;102773.13;5015747;28;20457;-65
2022/01/29 01:48:57;;;;;;;36.33;22.00;;;;;;;2.61;61.20;102766.25;5015694;28;20126;-66
2022/01/29 01:51:25;;;;;;;33.88;20.20;;;;;;;2.65;61.48;102763.72;5015642;28;20049;-65
2022/01/29 01:53:52;;;;;;;35.75;20.85;;;;;;;2.60;61.32;102749.00;5015634;28;20065;-65
2022/01/29 01:56:19;;;;;;;34.50;20.73;;;;;;;2.64;61.33;102739.53;5015466;28;20407;-65
2022/01/29 01:58:46;;;;;;;37.95;21.77;;;;;;;2.62;61.33;102746.41;5015510;28;20072;-65
2022/01/29 02:01:14;;;;;;;34.88;20.45;;;;;;;2.60;61.47;102746.41;5015488;28;20049;-66
2022/01/29 02:03:41;;;;;;;32.97;20.25;;;;;;;2.58;61.45;102744.66;5015085;28;20486;-65
2022/01/29 02:06:08;;;;;;;35.00;20.52;;;;;;;2.55;61.24;102742.00;5014987;28;20597;-66
2022/01/29 02:08:35;;;;;;;38.83;21.15;;;;;;;2.55;61.33;102742.00;5014813;28;20096;-65
2022/01/29 02:14:44;;;;;;;34.42;21.10;;;;;;;2.52;61.35;102718.69;5015045;28;20108;-66
2022/01/29 02:17:11;;;;;;;35.17;21.33;;;;;;;2.53;61.01;102720.41;5015152;28;20046;-65
2022/01/29 02:19:38;;;;;;;36.78;21.58;;;;;;;2.51;61.40;102720.38;5015259;28;20080;-66
2022/01/29 02:22:06;;;;;;;41.72;21.83;;;;;;;2.52;61.44;102714.34;5014733;28;20518;-65
2022/01/29 02:24:33;;;;;;;40.35;22.85;;;;;;;2.54;61.45;102720.44;5015012;28;20061;-65
2022/01/29 02:27:00;;;;;;;40.22;22.25;;;;;;;2.52;61.47;102721.28;5015020;28;20050;-65
2022/01/29 02:29:27;;;;;;;38.13;22.13;;;;;;;2.51;61.68;102724.72;5014779;28;20058;-66
2022/01/29 02:31:57;;;;;;;40.95;23.05;;;;;;;2.49;61.81;102719.53;5014908;28;20045;-65
2022/01/29 02:34:24;;;;;;;45.95;24.95;;;;;;;2.51;61.64;102720.38;5014523;28;20479;-66
2022/01/29 02:36:53;;;;;;;46.08;24.60;;;;;;;2.50;61.87;102717.78;5014783;28;20332;-65
2022/01/29 02:39:21;;;;;;;45.88;23.52;;;;;;;2.49;61.68;102718.63;5015223;28;20042;-66
2022/01/29 02:41:47;;;;;;;43.65;24.58;;;;;;;2.47;61.69;102726.41;5014724;28;20108;-65
2022/01/29 02:44:19;;;;;;;41.67;23.42;;;;;;;2.42;61.65;102730.66;5014332;28;20049;-66
2022/01/29 02:49:19;;;;;;;42.47;23.73;;;;;;;2.37;61.63;102733.22;5014270;28;20050;-65
2022/01/29 02:51:48;;;;;;;41.45;22.98;;;;;;;2.31;61.65;102730.59;5014414;28;20053;-66
2022/01/29 02:54:16;;;;;;;46.95;25.00;;;;;;;2.31;61.44;102733.16;5014472;28;20049;-66
2022/01/29 02:56:43;;;;;;;44.70;24.63;;;;;;;2.29;61.63;102734.88;5014205;28;20050;-65
2022/01/29 02:59:10;;;;;;;46.35;24.45;;;;;;;2.28;61.37;102731.38;5014521;28;20050;-66
2022/01/29 03:01:37;;;;;;;40.70;23.75;;;;;;;2.31;61.48;102740.06;5014384;28;20100;-66
2022/01/29 03:04:04;;;;;;;42.70;24.63;;;;;;;2.32;61.39;102747.84;5014271;28;20411;-66
2022/01/29 03:06:31;;;;;;;39.13;22.80;;;;;;;2.33;61.34;102735.78;5014294;28;20054;-65
2022/01/29 03:08:59;;;;;;;45.00;24.17;;;;;;;2.34;61.29;102734.91;5014545;28;20050;-65
2022/01/29 03:11:25;;;;;;;46.10;25.05;;;;;;;2.33;61.35;102725.41;5013986;28;20045;-65
2022/01/29 03:13:52;;;;;;;45.38;24.95;;;;;;;2.35;61.31;102734.94;5014078;28;20046;-66
2022/01/29 03:16:19;;;;;;;39.40;23.48;;;;;;;2.39;61.27;102728.06;5014217;28;20049;-65
2022/01/29 03:18:46;;;;;;;42.05;23.63;;;;;;;2.36;61.30;102722.84;5013137;28;20084;-66
2022/01/29 03:21:14;;;;;;;42.90;23.98;;;;;;;2.34;61.45;102725.41;5014102;28;20050;-66
2022/01/29 03:23:41;;;;;;;42.55;22.60;;;;;;;2.29;61.46;102721.91;5013765;28;20050;-65
2022/01/29 03:26:08;;;;;;;39.38;23.38;;;;;;;2.23;61.70;102717.53;5014127;28;20193;-66
2022/01/29 03:28:35;;;;;;;43.03;23.48;;;;;;;2.26;61.69;102714.97;5013663;28;20488;-65
2022/01/29 03:31:02;;;;;;;43.78;22.70;;;;;;;2.31;61.73;102714.16;5013970;28;20050;-66
2022/01/29 03:33:29;;;;;;;45.08;24.73;;;;;;;2.30;61.75;102710.72;5013608;28;20410;-65
2022/01/29 03:35:56;;;;;;;41.65;23.13;;;;;;;2.28;61.85;102713.25;5013651;28;20483;-64
2022/01/29 03:38:24;;;;;;;42.33;23.15;;;;;;;2.33;61.69;102718.50;5013445;28;20064;-64
2022/01/29 03:40:51;;;;;;;42.72;23.10;;;;;;;2.28;61.57;102712.41;5013553;28;20046;-64
2022/01/29 03:43:32;;;;;;;41.70;24.42;;;;;;;2.32;61.46;102721.94;5013891;28;20069;-64
2022/01/29 03:45:58;;;;;;;37.75;22.08;;;;;;;2.28;61.25;102720.16;5014285;28;20057;-64
2022/01/29 03:48:25;;;;;;;43.03;23.80;;;;;;;2.26;61.57;102721.88;5013781;28;20134;-65
2022/01/29 03:50:52;;;;;;;44.97;23.33;;;;;;;2.25;61.49;102720.16;5013440;28;20054;-65
2022/01/29 03:53:19;;;;;;;39.35;22.77;;;;;;;2.18;61.69;102711.44;5013826;28;20061;-65
2022/01/29 03:55:46;;;;;;;41.25;22.58;;;;;;;2.07;61.72;102708.75;5013708;28;20046;-65
2022/01/29 03:58:12;;;;;;;40.92;22.08;;;;;;;2.10;61.63;102708.75;5013237;28;20061;-64
2022/01/29 04:00:39;;;;;;;38.33;22.20;;;;;;;2.05;61.47;102704.41;5013633;28;20050;-65
2022/01/29 04:03:07;;;;;;;39.50;22.25;;;;;;;2.04;61.24;102713.88;5013439;28;20057;-64
2022/01/29 04:05:34;;;;;;;44.45;21.50;;;;;;;2.00;61.61;102722.47;5012840;28;20100;-64
2022/01/29 04:08:01;;;;;;;40.85;21.50;;;;;;;1.98;61.32;102731.06;5013090;28;20046;-64
2022/01/29 04:10:29;;;;;;;38.33;21.92;;;;;;;1.94;61.29;102730.16;5013159;28;20116;-64
2022/01/29 04:12:56;;;;;;;39.90;22.95;;;;;;;2.02;61.07;102722.47;5012884;28;20414;-64
2022/01/29 04:15:23;;;;;;;39.83;21.98;;;;;;;2.01;60.98;102721.63;5012790;28;20494;-64
2022/01/29 04:17:50;;;;;;;40.47;22.95;;;;;;;1.99;60.97;102717.28;5012696;28;20471;-65
2022/01/29 04:20:16;;;;;;;43.88;23.08;;;;;;;1.99;61.09;102706.91;5012762;28;20498;-64
2022/01/29 04:22:43;;;;;;;40.17;22.73;;;;;;;1.95;60.97;102700.84;5012753;28;20045;-65
2022/01/29 04:25:10;;;;;;;42.22;23.83;;;;;;;1.98;60.84;102690.53;5013060;28;20049;-65
2022/01/29 04:27:43;;;;;;;41.35;23.10;;;;;;;1.96;60.98;102695.66;5012583;28;20415;-64
2022/01/29 04:30:23;;;;;;;46.42;24.40;;;;;;;1.96;60.79;102682.72;5013212;28;20042;-64
2022/01/29 04:35:21;;;;;;;43.35;24.85;;;;;;;1.94;60.73;102697.38;5016629;28;20042;-64
2022/01/29 04:37:49;;;;;;;45.65;23.60;;;;;;;1.93;60.83;102699.94;5016248;28;20052;-64
2022/01/29 04:40:17;;;;;;;42.67;24.02;;;;;;;1.91;61.07;102696.47;5016570;28;20104;-64
2022/01/29 04:42:43;;;;;;;44.47;24.35;;;;;;;1.89;61.04;102711.13;5016271;28;20049;-64
2022/01/29 04:45:11;;;;;;;48.42;24.52;;;;;;;1.95;60.66;102711.19;5016193;28;20045;-64
2022/01/29 04:47:37;;;;;;;45.70;24.23;;;;;;;1.93;60.95;102710.28;5016470;28;20061;-64
2022/01/29 04:50:05;;;;;;;51.67;25.30;;;;;;;1.97;60.81;102706.91;5016518;28;20070;-64
2022/01/29 04:52:32;;;;;;;47.78;25.52;;;;;;;1.95;60.85;102700.84;5014868;28;20049;-64
2022/01/29 04:54:59;;;;;;;46.13;23.73;;;;;;;1.95;61.02;102708.59;5016000;28;20495;-64
2022/01/29 04:57:26;;;;;;;45.20;23.85;;;;;;;1.95;60.97;102706.88;5016214;28;20336;-64
2022/01/29 04:59:53;;;;;;;44.53;24.88;;;;;;;1.94;60.93;102701.69;5016247;28;20041;-65
2022/01/29 05:02:19;;;;;;;48.47;25.00;;;;;;;1.97;61.16;102701.72;5016132;28;20061;-65
2022/01/29 05:04:46;;;;;;;48.58;24.63;;;;;;;1.99;61.08;102700.00;5015889;28;20502;-64
2022/01/29 05:07:13;;;;;;;46.30;24.58;;;;;;;2.08;61.09;102705.31;5015809;28;20100;-64
2022/01/29 05:09:39;;;;;;;48.28;25.23;;;;;;;2.11;61.13;102697.56;5016043;28;20045;-64
2022/01/29 05:12:30;;;;;;;50.58;25.77;;;;;;;2.10;61.33;102705.31;5015764;28;20046;-64
2022/01/29 05:28:30;;;;;;;56.50;28.90;;;;;;;2.26;62.11;102720.16;5015446;28;20083;-64
2022/01/29 05:30:56;;;;;;;58.90;28.80;;;;;;;2.27;62.25;102719.31;5015346;28;20131;-64
2022/01/29 05:33:23;;;;;;;58.33;29.23;;;;;;;2.30;62.14;102723.66;5015913;28;20050;-65
2022/01/29 05:35:50;;;;;;;57.45;28.90;;;;;;;2.27;62.19;102726.19;5015675;28;20046;-64
2022/01/29 05:38:16;;;;;;;53.80;28.13;;;;;;;2.24;62.75;102721.84;5015705;28;20046;-64
2022/01/29 05:40:43;;;;;;;58.55;27.83;;;;;;;2.22;62.72;102717.50;5015552;28;20387;-65
2022/01/29 05:43:10;;;;;;;57.58;27.38;;;;;;;2.22;62.86;102720.09;5014039;28;20491;-65
2022/01/29 05:45:37;;;;;;;57.28;27.10;;;;;;;2.25;62.85;102708.06;5015124;28;20053;-65
2022/01/29 05:48:04;;;;;;;44.97;24.55;;;;;;;2.27;62.68;102713.25;5015344;28;20132;-64
2022/01/29 05:50:30;;;;;;;48.85;25.08;;;;;;;2.28;62.55;102721.03;5014975;28;20141;-65
2022/01/29 05:52:57;;;;;;;54.58;24.92;;;;;;;2.23;62.82;102734.78;5015183;28;20137;-64
2022/01/29 05:55:24;;;;;;;49.55;27.50;;;;;;;2.18;62.68;102739.91;5014889;28;20112;-64
2022/01/29 05:57:50;;;;;;;46.20;23.52;;;;;;;1.93;62.78;102752.59;5015048;28;20050;-64
2022/01/29 06:00:17;;;;;;;48.10;25.55;;;;;;;1.93;62.78;102749.13;5015134;28;20050;-64
2022/01/29 06:02:44;;;;;;;48.55;24.50;;;;;;;1.85;62.68;102761.13;5014738;28;20045;-64
2022/01/29 06:05:11;;;;;;;48.05;25.33;;;;;;;1.90;62.45;102759.47;5014636;28;20049;-64
2022/01/29 06:07:38;;;;;;;47.10;24.52;;;;;;;1.87;62.27;102765.47;5015011;28;20096;-64
2022/01/29 06:10:05;;;;;;;44.10;23.35;;;;;;;1.88;62.25;102767.22;5014964;28;20046;-64
2022/01/29 06:12:36;;;;;;;49.58;24.38;;;;;;;1.86;62.18;102757.69;5015183;28;20088;-65
2022/01/29 06:15:03;;;;;;;46.97;24.88;;;;;;;1.83;62.18;102768.00;5014772;28;20042;-65
2022/01/29 06:17:30;;;;;;;43.22;24.25;;;;;;;1.81;61.96;102770.56;5014552;28;20050;-65
2022/01/29 06:19:57;;;;;;;46.08;22.75;;;;;;;1.81;62.03;102775.75;5014427;28;20050;-64
2022/01/29 06:22:24;;;;;;;41.33;23.95;;;;;;;1.78;61.80;102775.72;5014683;28;20056;-64
2022/01/29 06:24:51;;;;;;;43.90;23.85;;;;;;;1.76;61.70;102786.03;5014355;28;20557;-64
2022/01/29 06:27:17;;;;;;;40.95;22.08;;;;;;;1.76;61.78;102788.63;5014444;28;20096;-64
2022/01/29 06:29:44;;;;;;;48.33;23.65;;;;;;;1.75;61.69;102793.78;5014288;28;20060;-64
2022/01/29 06:32:11;;;;;;;43.72;21.85;;;;;;;1.73;61.58;102782.56;5014699;28;20068;-64
2022/01/29 06:34:37;;;;;;;42.15;22.33;;;;;;;1.73;61.70;102788.59;5014131;28;20046;-64
2022/01/29 06:37:04;;;;;;;45.08;23.23;;;;;;;1.74;61.33;102795.50;5014392;28;20061;-64
2022/01/29 06:39:31;;;;;;;39.28;21.30;;;;;;;1.77;61.12;102782.59;5014399;28;20375;-65
2022/01/29 06:41:57;;;;;;;36.83;20.92;;;;;;;1.74;61.18;102789.44;5014326;28;20058;-64
2022/01/29 06:44:24;;;;;;;41.05;20.60;;;;;;;1.72;61.13;102793.75;5013923;28;20100;-64
2022/01/29 06:46:51;;;;;;;38.08;19.98;;;;;;;1.68;61.18;102799.75;5014250;28;20046;-65
2022/01/29 06:49:17;;;;;;;40.17;21.85;;;;;;;1.67;61.25;102804.03;5013885;28;20068;-65
2022/01/29 06:51:44;;;;;;;40.08;21.90;;;;;;;1.73;61.01;102798.94;5014110;28;20145;-65
2022/01/29 06:54:11;;;;;;;40.30;20.88;;;;;;;1.68;61.05;102803.19;5013957;28;20050;-65
2022/01/29 06:56:37;;;;;;;38.72;20.95;;;;;;;1.67;60.81;102804.03;5014085;28;20092;-64
2022/01/29 06:59:04;;;;;;;36.17;20.88;;;;;;;1.69;61.04;102804.03;5013900;28;20045;-65
2022/01/29 07:01:35;;;;;;;39.13;20.52;;;;;;;1.72;60.88;102796.34;5013626;28;20088;-65
2022/01/29 07:04:02;;;;;;;34.85;20.88;;;;;;;1.67;61.20;102800.59;5013694;28;20057;-64
2022/01/29 07:06:28;;;;;;;34.70;19.33;;;;;;;1.65;60.80;102805.75;5013657;28;20446;-65
2022/01/29 07:08:55;;;;;;;33.30;17.75;;;;;;;1.67;60.82;102803.19;5013945;28;20465;-64
2022/01/29 07:11:23;;;;;;;33.33;19.13;;;;;;;1.72;60.73;102802.38;5013552;28;20042;-64
2022/01/29 07:14:02;;;;;;;32.72;18.65;;;;;;;1.70;60.54;102805.78;5013849;28;20082;-65
2022/01/29 07:16:30;;;;;;;33.05;18.88;;;;;;;1.70;60.67;102816.13;5013858;28;20049;-65
2022/01/29 07:18:57;;;;;;;30.45;18.63;;;;;;;1.77;60.52;102818.84;5013620;28;20181;-65
2022/01/29 07:21:24;;;;;;;34.33;20.02;;;;;;;1.78;60.26;102820.56;5013691;28;20045;-64
2022/01/29 07:23:51;;;;;;;33.35;19.77;;;;;;;1.84;60.27;102821.50;5013365;28;20046;-64
2022/01/29 07:26:17;;;;;;;31.85;18.25;;;;;;;1.95;60.05;102830.28;5014003;28;20042;-64
2022/01/29 07:28:44;;;;;;;35.83;19.23;;;;;;;2.06;59.69;102833.03;5013512;28;20487;-65
2022/01/29 07:31:11;;;;;;;32.50;19.27;;;;;;;2.11;59.83;102829.63;5013619;28;20049;-64
2022/01/29 07:33:38;;;;;;;37.88;21.05;;;;;;;2.18;59.64;102833.16;5013498;28;20057;-65
2022/01/29 07:36:05;;;;;;;33.45;19.98;;;;;;;2.24;59.31;102827.19;5013524;28;20049;-65
2022/01/29 07:38:31;;;;;;;41.17;22.08;;;;;;;2.35;59.43;102830.78;5013423;28;20096;-64
2022/01/29 07:40:58;;;;;;;36.95;21.25;;;;;;;2.56;58.85;102824.94;5013400;28;20057;-64
2022/01/29 07:43:25;;;;;;;34.88;19.52;;;;;;;2.65;58.96;102837.16;5013447;28;20096;-65
2022/01/29 07:45:51;;;;;;;31.95;18.35;;;;;;;2.76;58.80;102838.13;5013050;28;20494;-65
2022/01/29 07:48:18;;;;;;;35.38;19.65;;;;;;;2.97;58.37;102852.19;5013057;28;20057;-64
2022/01/29 07:50:45;;;;;;;30.58;18.27;;;;;;;3.08;58.12;102855.72;5013818;28;20042;-64
2022/01/29 07:53:12;;;;;;;35.47;19.67;;;;;;;3.21;58.05;102843.72;5013334;28;20046;-65
2022/01/29 07:55:38;;;;;;;30.45;18.92;;;;;;;3.43;57.83;102851.69;5012978;28;20450;-65
2022/01/29 07:58:05;;;;;;;33.47;18.45;;;;;;;3.54;57.57;102854.34;5013419;28;20082;-64
2022/01/29 08:00:35;;;;;;;34.95;21.50;;;;;;;3.63;57.61;102854.41;5013236;28;20042;-65
2022/01/29 08:03:02;;;;;;;33.72;20.48;;;;;;;3.75;57.63;102864.84;5013157;28;20042;-65
2022/01/29 08:05:29;;;;;;;36.92;21.13;;;;;;;3.76;57.77;102871.81;5013995;28;20088;-64
2022/01/29 08:07:56;;;;;;;39.05;23.08;;;;;;;3.86;57.78;102872.72;5017149;28;20049;-65
2022/01/29 08:14:13;;;;;;;36.72;19.90;;;;;;;4.20;57.32;102861.63;5017212;28;20056;-69
2022/01/29 08:16:40;;;;;;;32.42;20.15;;;;;;;4.34;57.22;102865.19;5015906;28;20050;-70
2022/01/29 08:19:07;;;;;;;34.05;19.92;;;;;;;4.48;57.06;102866.94;5016898;28;20054;-70
2022/01/29 08:21:33;;;;;;;38.15;21.05;;;;;;;4.69;56.86;102868.75;5016870;28;20092;-70
2022/01/29 08:24:00;;;;;;;35.83;21.17;;;;;;;4.82;56.52;102859.22;5016644;28;20050;-69
2022/01/29 08:26:28;;;;;;;34.55;19.63;;;;;;;5.00;56.53;102859.25;5016853;28;20046;-70
2022/01/29 08:28:54;;;;;;;34.67;20.73;;;;;;;5.21;55.82;102858.38;5016609;28;20136;-67
2022/01/29 08:31:21;;;;;;;34.03;19.95;;;;;;;5.37;55.72;102854.06;5016483;28;20502;-69
2022/01/29 08:33:48;;;;;;;33.17;20.15;;;;;;;5.53;55.52;102862.69;5016960;28;20058;-67
2022/01/29 08:36:14;;;;;;;37.25;21.30;;;;;;;5.63;55.10;102855.75;5016614;28;20049;-64
2022/01/29 08:38:41;;;;;;;37.47;20.60;;;;;;;5.77;55.04;102847.91;5016195;28;20486;-69
2022/01/29 08:41:08;;;;;;;35.05;19.95;;;;;;;5.93;54.83;102840.03;5016920;28;20052;-70
2022/01/29 08:43:34;;;;;;;35.90;19.65;;;;;;;6.10;54.39;102840.88;5016949;28;20053;-70
2022/01/29 08:46:01;;;;;;;37.03;20.00;;;;;;;6.29;54.13;102839.06;5016176;28;20060;-70
2022/01/29 08:48:28;;;;;;;36.40;21.33;;;;;;;6.48;53.72;102834.63;5016453;28;20081;-69
2022/01/29 08:50:55;;;;;;;35.03;21.38;;;;;;;6.62;53.61;102837.16;5016113;28;20053;-67
2022/01/29 08:53:22;;;;;;;37.45;22.00;;;;;;;6.74;53.48;102836.19;5015990;28;20054;-66
2022/01/29 08:55:48;;;;;;;52.53;27.67;;;;;;;6.84;53.25;102847.44;5016011;28;20046;-66
2022/01/29 08:58:15;;;;;;;40.30;23.27;;;;;;;6.93;53.37;102851.72;5016185;28;20049;-66
2022/01/29 09:00:44;;;;;;;33.95;20.90;;;;;;;7.03;53.20;102851.66;5016197;28;20480;-69
2022/01/29 09:03:14;;;;;;;33.10;20.05;;;;;;;7.17;53.02;102861.13;5015847;28;20080;-66
2022/01/29 09:05:44;;;;;;;39.45;21.38;;;;;;;7.29;52.77;102849.72;5015865;28;20050;-67
2022/01/29 09:08:13;;;;;;;35.28;21.40;;;;;;;7.41;52.55;102848.72;5016411;28;20076;-64
2022/01/29 09:10:39;;;;;;;38.45;20.65;;;;;;;7.54;52.43;102852.94;5016077;28;20201;-66
2022/01/29 09:13:07;;;;;;;34.17;20.20;;;;;;;7.70;52.29;102856.28;5015680;28;20077;-65
2022/01/29 09:15:33;;;;;;;31.83;19.63;;;;;;;7.81;52.28;102864.03;5015523;28;20560;-71
2022/01/29 09:18:00;;;;;;;35.15;21.80;;;;;;;7.96;52.31;102861.22;5015872;28;20149;-68
2022/01/29 09:20:29;;;;;;;38.25;20.55;;;;;;;8.08;52.02;102857.59;5015594;28;20056;-67
2022/01/29 09:22:56;;;;;;;32.63;19.95;;;;;;;8.22;51.69;102856.56;5015910;28;20272;-68
2022/01/29 09:25:25;;;;;;;36.80;22.05;;;;;;;8.36;51.62;102859.00;5047315;28;20133;-68
2022/01/29 09:27:51;;;;;;;37.35;21.45;;;;;;;8.46;51.41;102856.28;5015413;28;20495;-68
2022/01/29 09:30:18;;;;;;;40.95;23.30;;;;;;;8.60;50.99;102847.38;5015726;28;20388;-68
2022/01/29 09:32:48;;;;;;;46.67;25.98;;;;;;;8.74;50.68;102845.41;5015442;28;20041;-68
2022/01/29 09:35:15;;;;;;;40.42;23.77;;;;;;;8.92;50.31;102846.03;5015536;28;20053;-70
2022/01/29 09:37:42;;;;;;;38.95;20.98;;;;;;;9.08;49.83;102849.28;5015842;28;20056;-70
2022/01/29 09:40:09;;;;;;;34.60;20.90;;;;;;;9.22;49.46;102844.66;5015433;28;20069;-67
2022/01/29 09:42:36;;;;;;;38.00;20.65;;;;;;;9.31;49.27;102836.63;5015502;28;20049;-69
2022/01/29 09:45:03;;;;;;;41.50;22.52;;;;;;;9.67;48.66;102830.75;5015442;28;20050;-68
2022/01/29 09:47:30;;;;;;;55.20;26.92;;;;;;;9.77;48.54;102828.81;5015392;28;20046;-70
2022/01/29 09:49:57;;;;;;;42.50;23.42;;;;;;;9.85;48.69;102821.66;5015336;28;20119;-69
2022/01/29 09:52:24;;;;;;;43.53;23.00;;;;;;;10.03;48.11;102823.06;5015202;28;20046;-66
2022/01/29 09:54:58;;;;;;;38.95;23.05;;;;;;;10.19;48.12;102814.84;5015287;28;20050;-66
2022/01/29 09:57:25;;;;;;;43.33;24.13;;;;;;;10.36;47.95;102818.00;5015100;28;20046;-65
2022/01/29 09:59:52;;;;;;;55.10;29.30;;;;;;;10.86;47.35;102811.59;5015086;28;20054;-65
2022/01/29 10:02:19;;;;;;;51.47;27.80;;;;;;;11.03;47.08;102801.50;5014980;28;20046;-67
2022/01/29 10:04:51;;;;;;;52.10;29.17;;;;;;;11.14;46.79;102803.88;5014874;28;20081;-65
2022/01/29 10:07:25;;;;;;;54.42;28.73;;;;;;;11.28;46.54;102804.38;5014888;28;20042;-64
2022/01/29 10:09:54;;;;;;;50.17;27.67;;;;;;;11.35;46.25;102798.97;5014929;28;20104;-64
2022/01/29 10:12:27;;;;;;;54.00;28.08;;;;;;;11.58;45.99;102790.47;5014874;28;20049;-65
2022/01/29 10:14:59;;;;;;;54.35;30.17;;;;;;;11.58;45.89;102793.94;5014483;28;20410;-64
2022/01/29 10:17:49;;;;;;;55.63;31.05;;;;;;;11.82;45.68;102796.78;5014541;28;20502;-65
2022/01/29 10:20:20;;;;;;;57.13;31.45;;;;;;;11.97;45.24;102795.50;5014166;28;20046;-65
2022/01/29 10:22:49;;;;;;;52.42;31.38;;;;;;;12.05;45.24;102792.66;5014646;28;20056;-65
2022/01/29 10:25:22;;;;;;;55.83;31.80;;;;;;;12.14;44.99;102783.59;5014526;28;20072;-65
2022/01/29 10:28:11;;;;;;;64.85;33.90;;;;;;;12.19;44.82;102785.19;5013591;28;20100;-65
2022/01/29 10:30:54;;;;;;;59.95;34.95;;;;;;;12.33;44.58;102778.63;5014494;28;20049;-65
2022/01/29 10:33:21;;;;;;;65.88;33.30;;;;;;;12.44;44.25;102775.66;5014512;28;20469;-65
2022/01/29 10:35:50;;;;;;;58.05;33.33;;;;;;;12.47;44.09;102778.19;5014004;28;20041;-65
2022/01/29 10:38:25;;;;;;;62.00;33.75;;;;;;;12.60;43.67;102769.00;5014049;28;20442;-65
2022/01/29 10:41:08;;;;;;;61.47;32.28;;;;;;;12.79;43.58;102761.34;5014324;28;20050;-65
2022/01/29 10:43:36;;;;;;;57.20;31.17;;;;;;;12.87;43.25;102758.44;5014257;28;20529;-65
2022/01/29 10:46:03;;;;;;;54.83;30.70;;;;;;;12.90;42.99;102751.31;5014233;28;20046;-65
2022/01/29 10:48:43;;;;;;;53.90;29.95;;;;;;;13.03;42.64;102745.63;5013874;28;20482;-65
2022/01/29 10:51:12;;;;;;;56.03;29.65;;;;;;;13.05;42.76;102747.28;5013802;28;20490;-65
2022/01/29 10:53:38;;;;;;;49.80;29.05;;;;;;;13.07;42.41;102742.81;5013849;28;20050;-65
2022/01/29 10:56:05;;;;;;;53.42;29.92;;;;;;;12.95;42.44;102735.34;5014386;28;20046;-65
2022/01/29 10:58:42;;;;;;;53.60;29.20;;;;;;;13.07;42.10;102734.91;5013885;28;20045;-65
2022/01/29 11:01:21;;;;;;;61.38;31.75;;;;;;;13.14;42.04;102722.38;5014265;28;20046;-65
2022/01/29 11:03:50;;;;;;;59.72;32.05;;;;;;;13.31;41.60;102724.41;5014169;28;20046;-66
2022/01/29 11:06:21;;;;;;;54.05;30.35;;;;;;;13.31;41.86;102713.00;5014368;28;20050;-65
2022/01/29 11:08:48;;;;;;;54.80;30.35;;;;;;;13.30;41.72;102706.84;5013577;28;20170;-65
2022/01/29 11:15:00;;;;;;;57.75;30.92;;;;;;;13.11;41.98;102705.81;5013562;28;20544;-65
2022/01/29 11:17:28;;;;;;;51.65;28.55;;;;;;;13.17;41.46;102692.41;5013381;28;20053;-65
2022/01/29 11:19:55;;;;;;;53.97;28.95;;;;;;;13.19;41.31;102690.56;5013653;28;20100;-66
2022/01/29 11:22:31;;;;;;;55.70;29.83;;;;;;;13.24;41.25;102691.25;5014093;28;20096;-65
2022/01/29 11:25:07;;;;;;;56.58;30.27;;;;;;;13.29;41.08;102680.56;5013468;28;20046;-65
2022/01/29 11:27:41;;;;;;;52.25;28.80;;;;;;;13.18;41.06;102680.94;5012948;28;20089;-65
2022/01/29 11:30:07;;;;;;;51.15;29.30;;;;;;;13.18;41.24;102676.53;5013705;28;20054;-65
2022/01/29 11:32:35;;;;;;;55.70;29.85;;;;;;;13.16;41.09;102672.25;5013418;28;20049;-65
2022/01/29 11:35:10;;;;;;;57.22;29.75;;;;;;;13.17;41.22;102673.97;5014060;28;20054;-65
2022/01/29 11:37:37;;;;;;;51.97;28.17;;;;;;;13.07;41.03;102670.78;5013376;28;20104;-65
2022/01/29 11:40:24;;;;;;;53.83;29.50;;;;;;;13.01;40.99;102671.84;5012528;28;20053;-65
2022/01/29 11:42:54;;;;;;;52.42;29.05;;;;;;;12.80;41.11;102662.97;5013403;28;20107;-65
2022/01/29 11:45:36;;;;;;;54.97;29.38;;;;;;;12.88;41.21;102660.91;5012949;28;20080;-65
2022/01/29 11:48:03;;;;;;;57.78;30.98;;;;;;;12.86;41.18;102654.84;5013247;28;20505;-65
2022/01/29 11:50:30;;;;;;;61.97;32.33;;;;;;;12.94;41.01;102646.66;5013332;28;20049;-65